sensor_id;sensor_type;location;lat;lon;timestamp;P1;durP1;ratioP1;P2;durP2;ratioP2
43744;SDS011;29359;53.048;8.732;2022-10-16T00:01:31;4.70;;;1.38;;
43744;SDS011;29359;53.048;8.732;2022-10-16T00:03:33;5.45;;;1.10;;
43744;SDS011;29359;53.048;8.732;2022-10-16T00:05:39;6.03;;;1.30;;
43744;SDS011;29359;53.048;8.732;2022-10-16T00:07:42;5.47;;;1.25;;
43744;SDS011;29359;53.048;8.732;2022-10-16T00:09:43;3.35;;;1.10;;
43744;SDS011;29359;53.048;8.732;2022-10-16T00:11:45;1.33;;;1.00;;
43744;SDS011;29359;53.048;8.732;2022-10-16T00:13:47;2.95;;;1.00;;
43744;SDS011;29359;53.048;8.732;2022-10-16T00:15:50;2.53;;;1.20;;
43744;SDS011;29359;53.048;8.732;2022-10-16T00:17:51;1.80;;;0.98;;
43744;SDS011;29359;53.048;8.732;2022-10-16T00:19:53;1.65;;;0.93;;
43744;SDS011;29359;53.048;8.732;2022-10-16T00:21:54;3.15;;;1.20;;
43744;SDS011;29359;53.048;8.732;2022-10-16T00:23:59;3.00;;;1.00;;
43744;SDS011;29359;53.048;8.732;2022-10-16T00:26:05;3.67;;;1.00;;
43744;SDS011;29359;53.048;8.732;2022-10-16T00:28:09;3.00;;;1.23;;
43744;SDS011;29359;53.048;8.732;2022-10-16T00:30:11;3.38;;;1.20;;
43744;SDS011;29359;53.048;8.732;2022-10-16T00:32:12;2.15;;;0.93;;
43744;SDS011;29359;53.048;8.732;2022-10-16T00:34:14;3.35;;;1.42;;
43744;SDS011;29359;53.048;8.732;2022-10-16T00:36:16;3.13;;;1.15;;
43744;SDS011;29359;53.048;8.732;2022-10-16T00:38:20;3.13;;;0.88;;
43744;SDS011;29359;53.048;8.732;2022-10-16T00:40:21;1.48;;;1.05;;
43744;SDS011;29359;53.048;8.732;2022-10-16T00:42:22;2.75;;;1.17;;
43744;SDS011;29359;53.048;8.732;2022-10-16T00:47:02;1.10;;;0.80;;
43744;SDS011;29359;53.048;8.732;2022-10-16T00:49:10;4.82;;;1.23;;
43744;SDS011;29359;53.048;8.732;2022-10-16T00:51:15;3.83;;;0.98;;
43744;SDS011;29359;53.048;8.732;2022-10-16T00:53:21;2.25;;;0.90;;
43744;SDS011;29359;53.048;8.732;2022-10-16T00:55:23;5.03;;;1.02;;
43744;SDS011;29359;53.048;8.732;2022-10-16T00:57:25;3.22;;;1.10;;
43744;SDS011;29359;53.048;8.732;2022-10-16T00:59:29;1.23;;;0.93;;
43744;SDS011;29359;53.048;8.732;2022-10-16T01:01:38;3.88;;;1.08;;
43744;SDS011;29359;53.048;8.732;2022-10-16T01:03:40;2.25;;;1.05;;
43744;SDS011;29359;53.048;8.732;2022-10-16T01:05:44;4.38;;;1.10;;
43744;SDS011;29359;53.048;8.732;2022-10-16T01:08:13;2.35;;;1.30;;
43744;SDS011;29359;53.048;8.732;2022-10-16T01:15:00;6.88;;;1.70;;
43744;SDS011;29359;53.048;8.732;2022-10-16T01:17:22;5.32;;;1.50;;
43744;SDS011;29359;53.048;8.732;2022-10-16T01:22:15;3.90;;;1.40;;
43744;SDS011;29359;53.048;8.732;2022-10-16T01:29:14;2.97;;;1.25;;
43744;SDS011;29359;53.048;8.732;2022-10-16T01:31:23;2.13;;;1.20;;
43744;SDS011;29359;53.048;8.732;2022-10-16T01:33:28;2.38;;;1.40;;
43744;SDS011;29359;53.048;8.732;2022-10-16T01:35:44;2.50;;;1.15;;
43744;SDS011;29359;53.048;8.732;2022-10-16T01:38:05;2.80;;;1.10;;
43744;SDS011;29359;53.048;8.732;2022-10-16T01:40:17;6.05;;;1.50;;
43744;SDS011;29359;53.048;8.732;2022-10-16T01:42:22;8.80;;;1.77;;
43744;SDS011;29359;53.048;8.732;2022-10-16T01:44:29;3.25;;;1.45;;
43744;SDS011;29359;53.048;8.732;2022-10-16T01:46:34;1.83;;;1.38;;
43744;SDS011;29359;53.048;8.732;2022-10-16T01:48:38;2.03;;;1.05;;
43744;SDS011;29359;53.048;8.732;2022-10-16T01:50:41;1.92;;;1.23;;
43744;SDS011;29359;53.048;8.732;2022-10-16T01:52:46;5.03;;;1.35;;
43744;SDS011;29359;53.048;8.732;2022-10-16T01:54:51;6.63;;;1.35;;
43744;SDS011;29359;53.048;8.732;2022-10-16T01:56:56;5.07;;;1.42;;
43744;SDS011;29359;53.048;8.732;2022-10-16T01:59:04;4.50;;;1.40;;
43744;SDS011;29359;53.048;8.732;2022-10-16T02:01:08;6.65;;;1.27;;
43744;SDS011;29359;53.048;8.732;2022-10-16T02:03:13;2.55;;;1.50;;
43744;SDS011;29359;53.048;8.732;2022-10-16T02:05:20;1.70;;;1.27;;
43744;SDS011;29359;53.048;8.732;2022-10-16T02:07:26;5.45;;;1.30;;
43744;SDS011;29359;53.048;8.732;2022-10-16T02:09:29;3.00;;;1.15;;
43744;SDS011;29359;53.048;8.732;2022-10-16T02:11:32;4.78;;;1.50;;
43744;SDS011;29359;53.048;8.732;2022-10-16T02:13:35;4.35;;;1.27;;
43744;SDS011;29359;53.048;8.732;2022-10-16T02:15:40;4.93;;;1.77;;
43744;SDS011;29359;53.048;8.732;2022-10-16T02:17:42;6.65;;;1.55;;
43744;SDS011;29359;53.048;8.732;2022-10-16T02:19:43;2.08;;;1.30;;
43744;SDS011;29359;53.048;8.732;2022-10-16T02:21:51;6.38;;;1.83;;
43744;SDS011;29359;53.048;8.732;2022-10-16T02:24:11;3.83;;;1.65;;
43744;SDS011;29359;53.048;8.732;2022-10-16T02:26:28;2.60;;;1.10;;
43744;SDS011;29359;53.048;8.732;2022-10-16T02:28:38;3.92;;;1.35;;
43744;SDS011;29359;53.048;8.732;2022-10-16T02:31:18;3.33;;;1.73;;
43744;SDS011;29359;53.048;8.732;2022-10-16T02:33:14;3.30;;;1.45;;
43744;SDS011;29359;53.048;8.732;2022-10-16T02:35:18;8.77;;;1.70;;
43744;SDS011;29359;53.048;8.732;2022-10-16T02:37:21;3.38;;;1.40;;
43744;SDS011;29359;53.048;8.732;2022-10-16T02:39:23;6.60;;;1.88;;
43744;SDS011;29359;53.048;8.732;2022-10-16T02:41:25;3.60;;;1.73;;
43744;SDS011;29359;53.048;8.732;2022-10-16T02:43:27;5.00;;;1.35;;
43744;SDS011;29359;53.048;8.732;2022-10-16T02:45:28;2.60;;;1.42;;
43744;SDS011;29359;53.048;8.732;2022-10-16T02:47:30;3.72;;;1.48;;
43744;SDS011;29359;53.048;8.732;2022-10-16T02:49:31;1.63;;;1.23;;
43744;SDS011;29359;53.048;8.732;2022-10-16T02:51:33;3.72;;;1.38;;
43744;SDS011;29359;53.048;8.732;2022-10-16T02:53:34;2.35;;;1.30;;
43744;SDS011;29359;53.048;8.732;2022-10-16T02:55:36;4.55;;;1.60;;
43744;SDS011;29359;53.048;8.732;2022-10-16T02:57:38;9.77;;;1.40;;
43744;SDS011;29359;53.048;8.732;2022-10-16T02:59:41;3.22;;;1.58;;
43744;SDS011;29359;53.048;8.732;2022-10-16T03:01:42;3.67;;;1.45;;
43744;SDS011;29359;53.048;8.732;2022-10-16T03:03:44;8.25;;;1.70;;
43744;SDS011;29359;53.048;8.732;2022-10-16T03:05:45;3.50;;;1.50;;
43744;SDS011;29359;53.048;8.732;2022-10-16T03:07:47;4.50;;;1.60;;
43744;SDS011;29359;53.048;8.732;2022-10-16T03:09:48;4.53;;;1.35;;
43744;SDS011;29359;53.048;8.732;2022-10-16T03:11:50;3.30;;;1.45;;
43744;SDS011;29359;53.048;8.732;2022-10-16T03:13:51;3.38;;;1.45;;
43744;SDS011;29359;53.048;8.732;2022-10-16T03:15:53;7.97;;;1.58;;
43744;SDS011;29359;53.048;8.732;2022-10-16T03:17:55;3.47;;;1.40;;
43744;SDS011;29359;53.048;8.732;2022-10-16T03:19:59;4.65;;;1.45;;
43744;SDS011;29359;53.048;8.732;2022-10-16T03:22:01;4.82;;;1.52;;
43744;SDS011;29359;53.048;8.732;2022-10-16T03:24:03;2.17;;;1.40;;
43744;SDS011;29359;53.048;8.732;2022-10-16T03:26:04;4.78;;;1.40;;
43744;SDS011;29359;53.048;8.732;2022-10-16T03:28:06;5.35;;;1.65;;
43744;SDS011;29359;53.048;8.732;2022-10-16T03:30:08;2.78;;;1.50;;
43744;SDS011;29359;53.048;8.732;2022-10-16T03:32:10;7.55;;;1.63;;
43744;SDS011;29359;53.048;8.732;2022-10-16T03:34:11;5.25;;;1.73;;
43744;SDS011;29359;53.048;8.732;2022-10-16T03:36:13;6.32;;;1.83;;
43744;SDS011;29359;53.048;8.732;2022-10-16T03:38:14;4.20;;;1.90;;
43744;SDS011;29359;53.048;8.732;2022-10-16T03:40:16;10.43;;;2.22;;
43744;SDS011;29359;53.048;8.732;2022-10-16T03:42:18;5.65;;;2.05;;
43744;SDS011;29359;53.048;8.732;2022-10-16T03:44:19;3.33;;;1.98;;
43744;SDS011;29359;53.048;8.732;2022-10-16T03:46:21;6.63;;;1.83;;
43744;SDS011;29359;53.048;8.732;2022-10-16T03:48:22;6.13;;;2.50;;
43744;SDS011;29359;53.048;8.732;2022-10-16T03:50:24;5.15;;;2.33;;
43744;SDS011;29359;53.048;8.732;2022-10-16T03:52:25;4.18;;;2.58;;
43744;SDS011;29359;53.048;8.732;2022-10-16T03:54:27;3.35;;;2.03;;
43744;SDS011;29359;53.048;8.732;2022-10-16T03:56:28;8.85;;;2.17;;
43744;SDS011;29359;53.048;8.732;2022-10-16T03:58:30;4.75;;;2.13;;
43744;SDS011;29359;53.048;8.732;2022-10-16T04:00:31;4.95;;;2.55;;
43744;SDS011;29359;53.048;8.732;2022-10-16T04:02:32;4.82;;;2.40;;
43744;SDS011;29359;53.048;8.732;2022-10-16T04:04:34;5.68;;;2.47;;
43744;SDS011;29359;53.048;8.732;2022-10-16T04:06:36;5.10;;;3.00;;
43744;SDS011;29359;53.048;8.732;2022-10-16T04:08:37;3.85;;;3.00;;
43744;SDS011;29359;53.048;8.732;2022-10-16T04:10:41;6.32;;;3.25;;
43744;SDS011;29359;53.048;8.732;2022-10-16T04:12:44;5.85;;;3.35;;
43744;SDS011;29359;53.048;8.732;2022-10-16T04:14:46;4.63;;;3.15;;
43744;SDS011;29359;53.048;8.732;2022-10-16T04:16:47;9.68;;;3.85;;
43744;SDS011;29359;53.048;8.732;2022-10-16T04:18:48;5.25;;;3.38;;
43744;SDS011;29359;53.048;8.732;2022-10-16T04:20:50;8.77;;;4.50;;
43744;SDS011;29359;53.048;8.732;2022-10-16T04:22:51;5.95;;;3.72;;
43744;SDS011;29359;53.048;8.732;2022-10-16T04:24:53;11.35;;;3.92;;
43744;SDS011;29359;53.048;8.732;2022-10-16T04:26:54;9.77;;;4.65;;
43744;SDS011;29359;53.048;8.732;2022-10-16T04:28:56;6.28;;;4.80;;
43744;SDS011;29359;53.048;8.732;2022-10-16T04:30:57;5.55;;;4.35;;
43744;SDS011;29359;53.048;8.732;2022-10-16T04:32:59;8.63;;;5.07;;
43744;SDS011;29359;53.048;8.732;2022-10-16T04:35:01;7.32;;;5.63;;
43744;SDS011;29359;53.048;8.732;2022-10-16T04:37:04;12.50;;;5.90;;
43744;SDS011;29359;53.048;8.732;2022-10-16T04:39:05;13.00;;;6.75;;
43744;SDS011;29359;53.048;8.732;2022-10-16T04:41:07;9.98;;;6.60;;
43744;SDS011;29359;53.048;8.732;2022-10-16T04:43:08;10.38;;;6.32;;
43744;SDS011;29359;53.048;8.732;2022-10-16T04:45:10;9.93;;;5.68;;
43744;SDS011;29359;53.048;8.732;2022-10-16T04:47:17;9.45;;;5.72;;
43744;SDS011;29359;53.048;8.732;2022-10-16T04:49:18;9.27;;;5.50;;
43744;SDS011;29359;53.048;8.732;2022-10-16T04:51:20;9.35;;;5.60;;
43744;SDS011;29359;53.048;8.732;2022-10-16T04:53:21;9.25;;;5.78;;
43744;SDS011;29359;53.048;8.732;2022-10-16T04:55:23;7.18;;;5.50;;
43744;SDS011;29359;53.048;8.732;2022-10-16T04:57:24;8.32;;;5.65;;
43744;SDS011;29359;53.048;8.732;2022-10-16T04:59:26;11.88;;;6.15;;
43744;SDS011;29359;53.048;8.732;2022-10-16T05:01:28;11.98;;;7.28;;
43744;SDS011;29359;53.048;8.732;2022-10-16T05:03:29;10.18;;;6.00;;
43744;SDS011;29359;53.048;8.732;2022-10-16T05:05:35;12.15;;;6.13;;
43744;SDS011;29359;53.048;8.732;2022-10-16T05:07:37;11.10;;;6.15;;
43744;SDS011;29359;53.048;8.732;2022-10-16T05:09:39;11.20;;;5.88;;
43744;SDS011;29359;53.048;8.732;2022-10-16T05:11:40;16.88;;;6.85;;
43744;SDS011;29359;53.048;8.732;2022-10-16T05:13:41;8.88;;;6.47;;
43744;SDS011;29359;53.048;8.732;2022-10-16T05:15:46;9.32;;;6.35;;
43744;SDS011;29359;53.048;8.732;2022-10-16T05:17:51;10.50;;;6.80;;
43744;SDS011;29359;53.048;8.732;2022-10-16T05:19:54;13.07;;;7.00;;
43744;SDS011;29359;53.048;8.732;2022-10-16T05:21:55;10.13;;;6.60;;
43744;SDS011;29359;53.048;8.732;2022-10-16T05:23:57;7.28;;;6.32;;
43744;SDS011;29359;53.048;8.732;2022-10-16T05:25:58;13.77;;;7.75;;
43744;SDS011;29359;53.048;8.732;2022-10-16T05:28:00;8.20;;;6.35;;
43744;SDS011;29359;53.048;8.732;2022-10-16T05:30:02;9.18;;;6.50;;
43744;SDS011;29359;53.048;8.732;2022-10-16T05:32:06;17.08;;;6.93;;
43744;SDS011;29359;53.048;8.732;2022-10-16T05:34:08;7.90;;;6.50;;
43744;SDS011;29359;53.048;8.732;2022-10-16T05:36:09;10.75;;;6.97;;
43744;SDS011;29359;53.048;8.732;2022-10-16T05:38:11;10.90;;;6.10;;
43744;SDS011;29359;53.048;8.732;2022-10-16T05:41:58;7.60;;;6.63;;
43744;SDS011;29359;53.048;8.732;2022-10-16T05:46:09;14.80;;;7.68;;
43744;SDS011;29359;53.048;8.732;2022-10-16T05:48:11;9.55;;;7.53;;
43744;SDS011;29359;53.048;8.732;2022-10-16T05:50:12;12.88;;;7.55;;
43744;SDS011;29359;53.048;8.732;2022-10-16T05:52:14;11.65;;;7.10;;
43744;SDS011;29359;53.048;8.732;2022-10-16T05:54:16;12.18;;;8.27;;
43744;SDS011;29359;53.048;8.732;2022-10-16T05:56:17;8.93;;;7.68;;
43744;SDS011;29359;53.048;8.732;2022-10-16T05:58:19;10.90;;;7.63;;
43744;SDS011;29359;53.048;8.732;2022-10-16T06:00:21;17.25;;;8.05;;
43744;SDS011;29359;53.048;8.732;2022-10-16T06:02:22;10.10;;;7.47;;
43744;SDS011;29359;53.048;8.732;2022-10-16T06:04:24;12.10;;;7.88;;
43744;SDS011;29359;53.048;8.732;2022-10-16T06:06:25;10.27;;;7.22;;
43744;SDS011;29359;53.048;8.732;2022-10-16T06:08:28;10.75;;;6.85;;
43744;SDS011;29359;53.048;8.732;2022-10-16T06:10:29;8.75;;;7.13;;
43744;SDS011;29359;53.048;8.732;2022-10-16T06:12:31;10.82;;;6.90;;
43744;SDS011;29359;53.048;8.732;2022-10-16T06:14:32;11.82;;;6.65;;
43744;SDS011;29359;53.048;8.732;2022-10-16T06:16:34;8.77;;;7.07;;
43744;SDS011;29359;53.048;8.732;2022-10-16T06:18:37;10.38;;;6.53;;
43744;SDS011;29359;53.048;8.732;2022-10-16T06:20:39;8.05;;;6.00;;
43744;SDS011;29359;53.048;8.732;2022-10-16T06:22:40;9.40;;;6.53;;
43744;SDS011;29359;53.048;8.732;2022-10-16T06:24:42;10.43;;;6.60;;
43744;SDS011;29359;53.048;8.732;2022-10-16T06:26:43;10.07;;;6.85;;
43744;SDS011;29359;53.048;8.732;2022-10-16T06:28:45;11.05;;;7.43;;
43744;SDS011;29359;53.048;8.732;2022-10-16T06:30:46;12.48;;;6.47;;
43744;SDS011;29359;53.048;8.732;2022-10-16T06:32:48;15.85;;;6.80;;
43744;SDS011;29359;53.048;8.732;2022-10-16T06:34:49;10.13;;;6.28;;
43744;SDS011;29359;53.048;8.732;2022-10-16T06:36:51;9.43;;;6.70;;
43744;SDS011;29359;53.048;8.732;2022-10-16T06:38:52;9.40;;;6.15;;
43744;SDS011;29359;53.048;8.732;2022-10-16T06:40:54;8.27;;;6.30;;
43744;SDS011;29359;53.048;8.732;2022-10-16T06:42:56;7.07;;;6.13;;
43744;SDS011;29359;53.048;8.732;2022-10-16T06:44:57;9.20;;;6.35;;
43744;SDS011;29359;53.048;8.732;2022-10-16T06:46:59;7.00;;;6.30;;
43744;SDS011;29359;53.048;8.732;2022-10-16T06:49:00;10.68;;;6.40;;
43744;SDS011;29359;53.048;8.732;2022-10-16T06:51:06;7.32;;;6.13;;
43744;SDS011;29359;53.048;8.732;2022-10-16T06:53:08;9.05;;;6.30;;
43744;SDS011;29359;53.048;8.732;2022-10-16T06:55:09;12.25;;;6.38;;
43744;SDS011;29359;53.048;8.732;2022-10-16T06:57:11;8.25;;;6.00;;
43744;SDS011;29359;53.048;8.732;2022-10-16T06:59:12;6.03;;;5.45;;
43744;SDS011;29359;53.048;8.732;2022-10-16T07:01:14;7.78;;;6.10;;
43744;SDS011;29359;53.048;8.732;2022-10-16T07:03:17;7.93;;;5.97;;
43744;SDS011;29359;53.048;8.732;2022-10-16T07:05:18;9.15;;;6.53;;
43744;SDS011;29359;53.048;8.732;2022-10-16T07:07:19;10.85;;;5.68;;
43744;SDS011;29359;53.048;8.732;2022-10-16T07:09:21;7.90;;;5.90;;
43744;SDS011;29359;53.048;8.732;2022-10-16T07:11:23;8.02;;;5.95;;
43744;SDS011;29359;53.048;8.732;2022-10-16T07:13:25;8.07;;;5.82;;
43744;SDS011;29359;53.048;8.732;2022-10-16T07:15:27;8.27;;;5.70;;
43744;SDS011;29359;53.048;8.732;2022-10-16T07:17:28;8.75;;;5.60;;
43744;SDS011;29359;53.048;8.732;2022-10-16T07:19:30;6.35;;;5.50;;
43744;SDS011;29359;53.048;8.732;2022-10-16T07:21:34;8.13;;;5.75;;
43744;SDS011;29359;53.048;8.732;2022-10-16T07:23:39;5.63;;;5.05;;
43744;SDS011;29359;53.048;8.732;2022-10-16T07:25:41;9.77;;;6.38;;
43744;SDS011;29359;53.048;8.732;2022-10-16T07:27:42;5.95;;;5.07;;
43744;SDS011;29359;53.048;8.732;2022-10-16T07:29:44;7.55;;;5.50;;
43744;SDS011;29359;53.048;8.732;2022-10-16T07:31:45;8.18;;;5.00;;
43744;SDS011;29359;53.048;8.732;2022-10-16T07:33:49;7.55;;;4.97;;
43744;SDS011;29359;53.048;8.732;2022-10-16T07:35:51;4.60;;;4.15;;
43744;SDS011;29359;53.048;8.732;2022-10-16T07:37:54;7.32;;;4.40;;
43744;SDS011;29359;53.048;8.732;2022-10-16T07:39:56;10.82;;;5.07;;
43744;SDS011;29359;53.048;8.732;2022-10-16T07:41:57;4.70;;;4.10;;
43744;SDS011;29359;53.048;8.732;2022-10-16T07:43:59;6.95;;;4.57;;
43744;SDS011;29359;53.048;8.732;2022-10-16T07:46:01;5.35;;;4.15;;
43744;SDS011;29359;53.048;8.732;2022-10-16T07:48:06;5.05;;;4.15;;
43744;SDS011;29359;53.048;8.732;2022-10-16T07:50:08;4.55;;;3.63;;
43744;SDS011;29359;53.048;8.732;2022-10-16T07:52:09;3.97;;;3.63;;
43744;SDS011;29359;53.048;8.732;2022-10-16T07:54:11;7.03;;;3.50;;
43744;SDS011;29359;53.048;8.732;2022-10-16T07:56:13;6.57;;;3.28;;
43744;SDS011;29359;53.048;8.732;2022-10-16T07:58:15;4.03;;;3.40;;
43744;SDS011;29359;53.048;8.732;2022-10-16T08:00:16;9.68;;;3.35;;
43744;SDS011;29359;53.048;8.732;2022-10-16T08:02:18;5.18;;;3.22;;
43744;SDS011;29359;53.048;8.732;2022-10-16T08:04:19;6.68;;;3.20;;
43744;SDS011;29359;53.048;8.732;2022-10-16T08:06:21;3.28;;;2.75;;
43744;SDS011;29359;53.048;8.732;2022-10-16T08:08:28;4.85;;;3.17;;
43744;SDS011;29359;53.048;8.732;2022-10-16T08:10:30;4.78;;;3.03;;
43744;SDS011;29359;53.048;8.732;2022-10-16T08:12:32;4.80;;;2.90;;
43744;SDS011;29359;53.048;8.732;2022-10-16T08:14:34;7.85;;;2.95;;
43744;SDS011;29359;53.048;8.732;2022-10-16T08:16:35;3.10;;;2.55;;
43744;SDS011;29359;53.048;8.732;2022-10-16T08:18:37;3.03;;;2.70;;
43744;SDS011;29359;53.048;8.732;2022-10-16T08:20:41;4.95;;;2.60;;
43744;SDS011;29359;53.048;8.732;2022-10-16T08:22:42;4.88;;;2.70;;
43744;SDS011;29359;53.048;8.732;2022-10-16T08:24:44;5.20;;;2.42;;
43744;SDS011;29359;53.048;8.732;2022-10-16T08:26:45;5.20;;;2.17;;
43744;SDS011;29359;53.048;8.732;2022-10-16T08:28:49;3.88;;;2.63;;
43744;SDS011;29359;53.048;8.732;2022-10-16T08:30:51;5.32;;;2.03;;
43744;SDS011;29359;53.048;8.732;2022-10-16T08:32:53;6.55;;;2.70;;
43744;SDS011;29359;53.048;8.732;2022-10-16T08:34:54;8.57;;;2.53;;
43744;SDS011;29359;53.048;8.732;2022-10-16T08:36:56;7.45;;;2.10;;
43744;SDS011;29359;53.048;8.732;2022-10-16T08:38:57;7.38;;;2.15;;
43744;SDS011;29359;53.048;8.732;2022-10-16T08:41:21;5.00;;;2.10;;
43744;SDS011;29359;53.048;8.732;2022-10-16T08:43:41;6.53;;;2.10;;
43744;SDS011;29359;53.048;8.732;2022-10-16T08:48:04;3.67;;;1.80;;
43744;SDS011;29359;53.048;8.732;2022-10-16T08:50:13;4.50;;;1.77;;
43744;SDS011;29359;53.048;8.732;2022-10-16T08:52:20;6.47;;;2.35;;
43744;SDS011;29359;53.048;8.732;2022-10-16T08:54:23;2.40;;;2.00;;
43744;SDS011;29359;53.048;8.732;2022-10-16T08:56:30;4.30;;;1.50;;
43744;SDS011;29359;53.048;8.732;2022-10-16T08:58:34;2.22;;;1.60;;
43744;SDS011;29359;53.048;8.732;2022-10-16T09:00:35;4.10;;;1.67;;
43744;SDS011;29359;53.048;8.732;2022-10-16T09:02:42;7.47;;;1.75;;
43744;SDS011;29359;53.048;8.732;2022-10-16T09:10:26;4.22;;;1.88;;
43744;SDS011;29359;53.048;8.732;2022-10-16T09:12:21;6.43;;;1.60;;
43744;SDS011;29359;53.048;8.732;2022-10-16T09:14:50;3.08;;;1.30;;
43744;SDS011;29359;53.048;8.732;2022-10-16T09:19:32;4.10;;;1.35;;
43744;SDS011;29359;53.048;8.732;2022-10-16T09:21:44;4.15;;;1.33;;
43744;SDS011;29359;53.048;8.732;2022-10-16T09:23:46;5.88;;;1.55;;
43744;SDS011;29359;53.048;8.732;2022-10-16T09:25:49;3.13;;;1.02;;
43744;SDS011;29359;53.048;8.732;2022-10-16T09:27:52;3.75;;;1.30;;
43744;SDS011;29359;53.048;8.732;2022-10-16T09:29:55;7.68;;;1.45;;
43744;SDS011;29359;53.048;8.732;2022-10-16T09:32:07;5.88;;;1.30;;
43744;SDS011;29359;53.048;8.732;2022-10-16T09:34:22;5.85;;;1.40;;
43744;SDS011;29359;53.048;8.732;2022-10-16T09:36:39;2.20;;;0.82;;
43744;SDS011;29359;53.048;8.732;2022-10-16T09:38:43;3.38;;;1.10;;
43744;SDS011;29359;53.048;8.732;2022-10-16T09:40:44;3.42;;;1.20;;
43744;SDS011;29359;53.048;8.732;2022-10-16T09:42:54;9.70;;;1.67;;
43744;SDS011;29359;53.048;8.732;2022-10-16T09:45:02;3.72;;;1.20;;
43744;SDS011;29359;53.048;8.732;2022-10-16T09:47:06;5.68;;;1.20;;
43744;SDS011;29359;53.048;8.732;2022-10-16T09:49:33;13.82;;;1.73;;
43744;SDS011;29359;53.048;8.732;2022-10-16T09:51:35;8.63;;;1.20;;
43744;SDS011;29359;53.048;8.732;2022-10-16T09:53:42;3.70;;;1.10;;
43744;SDS011;29359;53.048;8.732;2022-10-16T09:55:52;6.05;;;1.40;;
43744;SDS011;29359;53.048;8.732;2022-10-16T09:57:54;4.47;;;1.55;;
43744;SDS011;29359;53.048;8.732;2022-10-16T09:59:57;1.73;;;0.90;;
43744;SDS011;29359;53.048;8.732;2022-10-16T10:02:03;4.70;;;0.98;;
43744;SDS011;29359;53.048;8.732;2022-10-16T10:04:12;6.43;;;1.38;;
43744;SDS011;29359;53.048;8.732;2022-10-16T10:06:18;3.65;;;1.10;;
43744;SDS011;29359;53.048;8.732;2022-10-16T10:08:23;3.97;;;0.75;;
43744;SDS011;29359;53.048;8.732;2022-10-16T10:10:26;4.32;;;1.30;;
43744;SDS011;29359;53.048;8.732;2022-10-16T10:12:30;3.67;;;0.80;;
43744;SDS011;29359;53.048;8.732;2022-10-16T10:14:39;3.33;;;0.70;;
43744;SDS011;29359;53.048;8.732;2022-10-16T10:16:46;4.65;;;1.02;;
43744;SDS011;29359;53.048;8.732;2022-10-16T10:18:57;6.55;;;1.35;;
43744;SDS011;29359;53.048;8.732;2022-10-16T10:21:00;6.55;;;1.17;;
43744;SDS011;29359;53.048;8.732;2022-10-16T10:23:22;2.60;;;1.08;;
43744;SDS011;29359;53.048;8.732;2022-10-16T10:30:01;8.15;;;1.10;;
43744;SDS011;29359;53.048;8.732;2022-10-16T10:32:19;1.77;;;0.70;;
43744;SDS011;29359;53.048;8.732;2022-10-16T10:36:59;7.43;;;1.20;;
43744;SDS011;29359;53.048;8.732;2022-10-16T10:39:30;7.15;;;1.00;;
43744;SDS011;29359;53.048;8.732;2022-10-16T10:46:15;4.20;;;0.90;;
43744;SDS011;29359;53.048;8.732;2022-10-16T10:57:16;1.77;;;0.75;;
43744;SDS011;29359;53.048;8.732;2022-10-16T10:59:48;2.00;;;0.70;;
43744;SDS011;29359;53.048;8.732;2022-10-16T11:06:48;4.90;;;0.95;;
43744;SDS011;29359;53.048;8.732;2022-10-16T11:08:56;6.38;;;0.85;;
43744;SDS011;29359;53.048;8.732;2022-10-16T11:11:05;2.88;;;0.70;;
43744;SDS011;29359;53.048;8.732;2022-10-16T11:13:23;2.10;;;0.90;;
43744;SDS011;29359;53.048;8.732;2022-10-16T11:15:33;2.65;;;0.90;;
43744;SDS011;29359;53.048;8.732;2022-10-16T11:17:54;4.53;;;0.73;;
43744;SDS011;29359;53.048;8.732;2022-10-16T11:20:12;1.58;;;0.50;;
43744;SDS011;29359;53.048;8.732;2022-10-16T11:24:20;5.15;;;0.85;;
43744;SDS011;29359;53.048;8.732;2022-10-16T11:26:30;4.20;;;0.85;;
43744;SDS011;29359;53.048;8.732;2022-10-16T11:28:37;10.45;;;1.00;;
43744;SDS011;29359;53.048;8.732;2022-10-16T11:30:48;1.65;;;0.50;;
43744;SDS011;29359;53.048;8.732;2022-10-16T11:32:56;4.53;;;0.98;;
43744;SDS011;29359;53.048;8.732;2022-10-16T11:35:11;2.22;;;0.90;;
43744;SDS011;29359;53.048;8.732;2022-10-16T11:37:32;2.78;;;0.70;;
43744;SDS011;29359;53.048;8.732;2022-10-16T11:39:40;9.05;;;0.77;;
43744;SDS011;29359;53.048;8.732;2022-10-16T11:41:48;3.88;;;0.77;;
43744;SDS011;29359;53.048;8.732;2022-10-16T11:43:56;4.18;;;0.70;;
43744;SDS011;29359;53.048;8.732;2022-10-16T11:46:17;7.53;;;0.80;;
43744;SDS011;29359;53.048;8.732;2022-10-16T11:48:24;2.58;;;0.82;;
43744;SDS011;29359;53.048;8.732;2022-10-16T11:52:47;8.82;;;1.05;;
43744;SDS011;29359;53.048;8.732;2022-10-16T11:54:59;2.50;;;0.80;;
43744;SDS011;29359;53.048;8.732;2022-10-16T11:57:12;3.38;;;1.00;;
43744;SDS011;29359;53.048;8.732;2022-10-16T11:59:27;2.63;;;0.80;;
43744;SDS011;29359;53.048;8.732;2022-10-16T12:01:41;3.30;;;1.10;;
43744;SDS011;29359;53.048;8.732;2022-10-16T12:06:11;2.78;;;0.82;;
43744;SDS011;29359;53.048;8.732;2022-10-16T12:08:29;2.65;;;0.60;;
43744;SDS011;29359;53.048;8.732;2022-10-16T12:10:31;4.13;;;0.80;;
43744;SDS011;29359;53.048;8.732;2022-10-16T12:12:42;3.25;;;0.88;;
43744;SDS011;29359;53.048;8.732;2022-10-16T12:14:46;2.30;;;0.70;;
43744;SDS011;29359;53.048;8.732;2022-10-16T12:19:39;6.05;;;1.45;;
43744;SDS011;29359;53.048;8.732;2022-10-16T12:21:41;5.10;;;0.90;;
43744;SDS011;29359;53.048;8.732;2022-10-16T12:23:51;4.38;;;1.00;;
43744;SDS011;29359;53.048;8.732;2022-10-16T12:25:55;4.82;;;0.80;;
43744;SDS011;29359;53.048;8.732;2022-10-16T12:28:02;2.10;;;0.50;;
43744;SDS011;29359;53.048;8.732;2022-10-16T12:30:21;2.33;;;0.60;;
43744;SDS011;29359;53.048;8.732;2022-10-16T12:32:31;2.33;;;0.52;;
43744;SDS011;29359;53.048;8.732;2022-10-16T12:34:47;3.53;;;1.00;;
43744;SDS011;29359;53.048;8.732;2022-10-16T12:36:49;4.75;;;0.80;;
43744;SDS011;29359;53.048;8.732;2022-10-16T12:38:51;3.22;;;0.80;;
43744;SDS011;29359;53.048;8.732;2022-10-16T12:40:58;3.08;;;1.08;;
43744;SDS011;29359;53.048;8.732;2022-10-16T12:43:12;3.60;;;0.77;;
43744;SDS011;29359;53.048;8.732;2022-10-16T12:45:33;3.85;;;1.02;;
43744;SDS011;29359;53.048;8.732;2022-10-16T12:47:36;4.22;;;0.93;;
43744;SDS011;29359;53.048;8.732;2022-10-16T12:49:47;4.03;;;0.70;;
43744;SDS011;29359;53.048;8.732;2022-10-16T12:51:50;3.10;;;0.80;;
43744;SDS011;29359;53.048;8.732;2022-10-16T12:53:59;8.15;;;0.95;;
43744;SDS011;29359;53.048;8.732;2022-10-16T12:56:05;2.47;;;1.00;;
43744;SDS011;29359;53.048;8.732;2022-10-16T13:04:50;4.93;;;0.75;;
43744;SDS011;29359;53.048;8.732;2022-10-16T13:28:11;6.60;;;1.35;;
43744;SDS011;29359;53.048;8.732;2022-10-16T13:30:24;5.18;;;1.00;;
43744;SDS011;29359;53.048;8.732;2022-10-16T13:32:31;7.15;;;1.58;;
43744;SDS011;29359;53.048;8.732;2022-10-16T13:34:32;4.03;;;0.75;;
43744;SDS011;29359;53.048;8.732;2022-10-16T13:36:35;2.35;;;0.80;;
43744;SDS011;29359;53.048;8.732;2022-10-16T13:38:45;4.53;;;1.00;;
43744;SDS011;29359;53.048;8.732;2022-10-16T13:42:59;6.45;;;0.93;;
43744;SDS011;29359;53.048;8.732;2022-10-16T13:45:01;4.25;;;0.75;;
43744;SDS011;29359;53.048;8.732;2022-10-16T13:47:02;5.18;;;1.05;;
43744;SDS011;29359;53.048;8.732;2022-10-16T13:49:14;5.95;;;1.17;;
43744;SDS011;29359;53.048;8.732;2022-10-16T13:51:17;3.17;;;0.77;;
43744;SDS011;29359;53.048;8.732;2022-10-16T13:53:20;3.30;;;1.00;;
43744;SDS011;29359;53.048;8.732;2022-10-16T13:55:21;4.72;;;1.23;;
43744;SDS011;29359;53.048;8.732;2022-10-16T13:57:23;6.45;;;1.10;;
43744;SDS011;29359;53.048;8.732;2022-10-16T13:59:34;3.95;;;0.90;;
43744;SDS011;29359;53.048;8.732;2022-10-16T14:01:40;3.33;;;0.82;;
43744;SDS011;29359;53.048;8.732;2022-10-16T14:03:44;3.72;;;0.70;;
43744;SDS011;29359;53.048;8.732;2022-10-16T14:05:48;6.28;;;1.27;;